createdAt,value
2022-11-25T00:01:27.362Z,10.70
2022-11-25T00:03:56.771Z,11.60
2022-11-25T00:06:29.879Z,7.50
2022-11-25T00:09:04.063Z,8.60
2022-11-25T00:11:34.295Z,6.90
2022-11-25T00:14:02.117Z,9.40
2022-11-25T00:16:29.895Z,12.80
2022-11-25T00:18:58.589Z,11.50
2022-11-25T00:21:28.889Z,15.10
2022-11-25T00:24:02.597Z,14.40
2022-11-25T00:26:33.073Z,13.90
2022-11-25T00:29:04.122Z,13.10
2022-11-25T00:31:34.533Z,10.20
2022-11-25T00:34:03.278Z,14.20
2022-11-25T00:36:33.966Z,13.90
2022-11-25T00:39:09.505Z,10.00
2022-11-25T00:41:56.773Z,10.00
2022-11-25T00:44:37.847Z,10.20
2022-11-25T00:47:06.402Z,14.80
2022-11-25T00:49:34.323Z,16.50
2022-11-25T00:52:02.275Z,20.40
2022-11-25T00:54:30.102Z,18.00
2022-11-25T00:56:58.989Z,13.50
2022-11-25T00:59:28.815Z,14.80
2022-11-25T01:04:25.339Z,12.90
2022-11-25T01:06:56.842Z,10.80
2022-11-25T01:09:24.590Z,7.90
2022-11-25T01:11:53.070Z,14.80
2022-11-25T01:14:22.375Z,13.20
2022-11-25T01:16:52.569Z,16.70
2022-11-25T01:19:20.924Z,19.30
2022-11-25T01:21:48.829Z,21.90
2022-11-25T01:24:17.299Z,16.60
2022-11-25T01:26:46.011Z,15.50
2022-11-25T01:29:17.009Z,17.90
2022-11-25T01:31:46.177Z,12.40
2022-11-25T01:34:25.068Z,13.50
2022-11-25T01:36:52.838Z,11.30
2022-11-25T01:39:25.648Z,7.30
2022-11-25T01:41:56.312Z,7.10
2022-11-25T01:44:27.648Z,14.50
2022-11-25T01:47:18.765Z,15.20
2022-11-25T01:49:55.626Z,15.60
2022-11-25T01:52:33.965Z,15.50
2022-11-25T01:55:22.443Z,13.90
2022-11-25T01:57:54.433Z,12.80
2022-11-25T02:00:25.588Z,12.10
2022-11-25T02:02:55.502Z,11.10
2022-11-25T02:05:34.595Z,11.60
2022-11-25T02:08:03.591Z,12.10
2022-11-25T02:10:34.570Z,11.70
2022-11-25T02:13:03.689Z,13.90
2022-11-25T02:15:34.920Z,15.30
2022-11-25T02:18:05.603Z,14.70
2022-11-25T02:20:33.665Z,14.30
2022-11-25T02:27:01.260Z,12.30
2022-11-25T02:29:28.145Z,11.10
2022-11-25T02:31:54.510Z,11.40
2022-11-25T02:34:20.984Z,8.70
2022-11-25T02:36:48.918Z,10.90
2022-11-25T02:39:18.122Z,9.90
2022-11-25T02:41:51.719Z,7.00
2022-11-25T02:44:18.254Z,12.40
2022-11-25T02:46:44.749Z,19.80
2022-11-25T02:49:11.368Z,16.70
2022-11-25T02:51:40.886Z,16.40
2022-11-25T02:54:09.300Z,12.70
2022-11-25T02:56:37.375Z,12.00
2022-11-25T02:59:04.265Z,12.30
2022-11-25T03:01:30.920Z,10.80
2022-11-25T03:03:57.887Z,11.90
2022-11-25T03:06:28.373Z,10.20
2022-11-25T03:08:55.298Z,10.20
2022-11-25T03:11:41.971Z,15.70
2022-11-25T03:14:08.486Z,18.40
2022-11-25T03:16:35.083Z,13.30
2022-11-25T03:19:03.883Z,10.30
2022-11-25T03:21:30.677Z,11.20
2022-11-25T03:23:57.123Z,7.80
2022-11-25T03:26:25.291Z,8.70
2022-11-25T03:28:52.146Z,7.30
2022-11-25T03:31:18.808Z,7.10
2022-11-25T03:33:45.219Z,8.60
2022-11-25T03:36:11.930Z,10.10
2022-11-25T03:38:38.344Z,10.50
2022-11-25T03:41:04.977Z,9.90
2022-11-25T03:43:32.441Z,9.30
2022-11-25T03:45:58.792Z,11.20
2022-11-25T03:48:25.125Z,10.20
2022-11-25T03:50:51.691Z,8.70
2022-11-25T03:53:18.006Z,9.20
2022-11-25T03:55:47.277Z,10.20
2022-11-25T03:58:13.825Z,9.20
2022-11-25T04:00:40.206Z,9.20
2022-11-25T04:03:06.616Z,10.20
2022-11-25T04:05:33.003Z,6.00
2022-11-25T04:08:02.766Z,9.70
2022-11-25T04:10:29.863Z,12.40
2022-11-25T04:12:58.229Z,15.30
2022-11-25T04:15:30.760Z,12.00
2022-11-25T04:17:57.683Z,12.70
2022-11-25T04:20:24.401Z,11.60
2022-11-25T04:26:24.612Z,10.90
2022-11-25T04:28:53.099Z,10.10
2022-11-25T04:31:21.377Z,9.60
2022-11-25T04:33:52.585Z,8.50
2022-11-25T04:36:21.030Z,9.00
2022-11-25T04:38:49.039Z,12.10
2022-11-25T04:41:18.423Z,15.90
2022-11-25T04:43:46.377Z,15.40
2022-11-25T04:46:17.963Z,13.20
2022-11-25T04:48:50.730Z,11.60
2022-11-25T04:51:18.799Z,11.50
2022-11-25T04:53:47.566Z,11.50
2022-11-25T04:56:18.591Z,10.20
2022-11-25T04:59:05.729Z,10.30
2022-11-25T05:01:33.954Z,9.90
2022-11-25T05:04:10.207Z,10.20
2022-11-25T05:06:37.957Z,13.00
2022-11-25T05:09:06.576Z,14.70
2022-11-25T05:11:35.534Z,14.70
2022-11-25T05:14:03.552Z,11.80
2022-11-25T05:16:31.876Z,11.50
2022-11-25T05:19:00.030Z,11.10
2022-11-25T05:21:28.005Z,11.10
2022-11-25T05:23:56.132Z,9.50
2022-11-25T05:26:24.260Z,11.60
2022-11-25T05:28:54.576Z,10.00
2022-11-25T05:31:22.340Z,9.50
2022-11-25T05:33:50.824Z,12.20
2022-11-25T05:36:19.022Z,16.00
2022-11-25T05:38:48.317Z,13.70
2022-11-25T05:41:21.443Z,11.80
2022-11-25T05:43:49.321Z,11.40
2022-11-25T05:46:17.882Z,11.70
2022-11-25T05:48:53.310Z,12.70
2022-11-25T05:51:22.369Z,11.70
2022-11-25T05:53:51.000Z,13.40
2022-11-25T05:56:19.334Z,11.10
2022-11-25T05:59:22.525Z,10.10
2022-11-25T06:02:05.012Z,14.40
2022-11-25T06:04:33.592Z,12.10
2022-11-25T06:07:01.771Z,13.70
2022-11-25T06:09:29.939Z,13.70
2022-11-25T06:11:57.925Z,13.70
2022-11-25T06:14:25.949Z,13.10
2022-11-25T06:16:53.766Z,12.00
2022-11-25T06:19:29.048Z,12.40
2022-11-25T06:21:56.723Z,11.50
2022-11-25T06:24:25.618Z,9.40
2022-11-25T06:26:57.124Z,9.60
2022-11-25T06:29:25.016Z,10.80
2022-11-25T06:31:52.793Z,14.00
2022-11-25T06:34:32.454Z,13.00
2022-11-25T06:37:01.164Z,11.60
2022-11-25T06:39:28.844Z,13.40
2022-11-25T06:41:56.708Z,14.00
2022-11-25T06:44:24.388Z,12.60
2022-11-25T06:46:52.239Z,12.40
2022-11-25T06:49:19.949Z,12.70
2022-11-25T06:51:49.726Z,11.60
2022-11-25T06:56:45.058Z,11.00
2022-11-25T06:59:12.845Z,11.10
2022-11-25T07:01:40.698Z,14.30
2022-11-25T07:04:08.451Z,16.00
2022-11-25T07:06:36.166Z,15.60
2022-11-25T07:09:04.679Z,12.50
2022-11-25T07:11:35.317Z,13.60
2022-11-25T07:14:06.351Z,13.10
2022-11-25T07:16:34.223Z,11.00
2022-11-25T07:19:03.183Z,11.90
2022-11-25T07:21:32.745Z,11.20
2022-11-25T07:24:02.687Z,11.20
2022-11-25T07:26:33.287Z,14.20
2022-11-25T07:29:04.264Z,15.10
2022-11-25T07:31:34.869Z,13.50
2022-11-25T07:34:08.199Z,14.40
2022-11-25T07:36:36.524Z,14.60
2022-11-25T07:39:07.877Z,13.60
2022-11-25T07:41:35.625Z,11.60
2022-11-25T07:44:05.772Z,12.00
2022-11-25T07:46:47.578Z,8.90
2022-11-25T07:49:18.517Z,12.40
2022-11-25T07:51:48.942Z,9.90
2022-11-25T07:54:17.466Z,14.20
2022-11-25T07:56:45.653Z,15.20
2022-11-25T07:59:15.692Z,13.80
2022-11-25T08:01:44.270Z,16.10
2022-11-25T08:04:19.494Z,13.80
2022-11-25T08:09:19.824Z,12.80
2022-11-25T08:11:49.109Z,10.90
2022-11-25T08:14:17.023Z,10.30
2022-11-25T08:16:45.195Z,11.20
2022-11-25T08:19:15.714Z,10.80
2022-11-25T08:21:43.941Z,10.80
2022-11-25T08:24:20.678Z,14.00
2022-11-25T08:26:48.718Z,14.10
2022-11-25T08:29:18.212Z,14.60
2022-11-25T08:31:46.352Z,13.90
2022-11-25T08:34:23.436Z,12.80
2022-11-25T08:36:52.698Z,12.20
2022-11-25T08:39:50.690Z,12.20
2022-11-25T08:42:09.426Z,12.40
2022-11-25T08:44:37.394Z,7.30
2022-11-25T08:47:05.226Z,12.40
2022-11-25T08:49:39.148Z,13.00
2022-11-25T08:52:09.888Z,10.40
2022-11-25T08:54:38.158Z,13.60
2022-11-25T08:57:06.176Z,16.00
2022-11-25T08:59:34.071Z,13.70
2022-11-25T09:02:02.376Z,12.20
2022-11-25T09:04:30.132Z,14.00
2022-11-25T09:06:57.881Z,13.10
2022-11-25T09:09:26.115Z,10.90
2022-11-25T09:11:54.449Z,8.50
2022-11-25T09:14:22.407Z,11.10
2022-11-25T09:16:50.288Z,7.40
2022-11-25T09:19:17.944Z,13.00
2022-11-25T09:21:45.628Z,14.00
2022-11-25T09:27:57.482Z,11.70
2022-11-25T09:30:26.350Z,13.50
2022-11-25T09:32:55.485Z,13.90
2022-11-25T09:35:25.183Z,12.50
2022-11-25T09:37:53.249Z,9.50
2022-11-25T09:40:40.645Z,12.90
2022-11-25T09:43:55.779Z,17.50
2022-11-25T09:46:42.001Z,14.20
2022-11-25T09:49:28.521Z,15.10
2022-11-25T09:52:10.784Z,12.80
2022-11-25T09:54:49.360Z,13.00
2022-11-25T09:57:48.288Z,10.70
2022-11-25T10:00:20.077Z,11.30
2022-11-25T10:02:51.007Z,11.20
2022-11-25T10:05:24.964Z,8.90
2022-11-25T10:07:56.588Z,12.20
2022-11-25T10:10:29.034Z,14.50
2022-11-25T10:12:58.743Z,17.20
2022-11-25T10:18:21.399Z,14.30
2022-11-25T10:23:28.540Z,12.90
2022-11-25T10:26:01.416Z,14.20
2022-11-25T10:28:34.296Z,13.80
2022-11-25T10:31:02.006Z,13.00
2022-11-25T10:33:44.025Z,12.70
2022-11-25T10:36:14.906Z,8.30
2022-11-25T10:39:00.925Z,9.90
2022-11-25T10:41:35.626Z,10.70
2022-11-25T10:44:04.146Z,12.10
2022-11-25T10:50:05.863Z,11.60
2022-11-25T10:52:46.780Z,14.90
2022-11-25T10:55:20.725Z,18.50
2022-11-25T10:57:48.437Z,17.90
2022-11-25T11:00:32.711Z,13.50
2022-11-25T11:03:14.780Z,14.20
2022-11-25T11:05:51.364Z,11.40
2022-11-25T11:08:23.002Z,10.20
2022-11-25T11:11:23.388Z,12.00
2022-11-25T11:14:18.999Z,13.10
2022-11-25T11:16:55.649Z,10.60
2022-11-25T11:19:27.332Z,14.20
2022-11-25T11:21:56.422Z,17.30
2022-11-25T11:24:35.815Z,14.90
2022-11-25T11:27:24.827Z,15.90
2022-11-25T11:30:23.913Z,17.20
2022-11-25T11:33:04.629Z,12.30
2022-11-25T11:36:02.170Z,15.00
2022-11-25T11:38:36.872Z,14.20
2022-11-25T11:41:30.190Z,13.90
2022-11-25T11:44:07.779Z,14.30
2022-11-25T11:46:40.667Z,16.30
2022-11-25T11:49:45.584Z,17.20
2022-11-25T11:52:34.647Z,16.30
2022-11-25T11:55:25.488Z,15.70
2022-11-25T11:58:11.411Z,13.00
2022-11-25T12:01:05.626Z,15.10
2022-11-25T12:03:41.976Z,7.90
2022-11-25T12:06:12.055Z,13.90
2022-11-25T12:08:52.736Z,13.80
2022-11-25T12:11:25.403Z,15.90
2022-11-25T12:14:05.731Z,15.50
2022-11-25T12:16:40.877Z,15.50
2022-11-25T12:19:20.651Z,14.40
2022-11-25T12:28:55.254Z,14.00
2022-11-25T12:31:44.248Z,12.30
2022-11-25T12:34:32.177Z,12.80
2022-11-25T12:37:15.384Z,12.90
2022-11-25T12:39:57.075Z,12.80
2022-11-25T12:42:26.335Z,14.80
2022-11-25T12:45:11.278Z,15.50
2022-11-25T12:47:41.567Z,15.40
2022-11-25T12:50:17.031Z,15.40
2022-11-25T12:52:50.746Z,12.50
2022-11-25T12:55:21.710Z,11.30
2022-11-25T12:58:08.360Z,13.10
2022-11-25T13:00:54.683Z,13.10
2022-11-25T13:03:44.215Z,11.70
2022-11-25T13:06:38.768Z,12.60
2022-11-25T13:09:31.451Z,17.00
2022-11-25T13:12:18.003Z,15.30
2022-11-25T13:15:19.237Z,14.10
2022-11-25T13:17:50.464Z,12.70
2022-11-25T13:20:27.369Z,14.10
2022-11-25T13:26:36.199Z,13.30
2022-11-25T13:29:27.008Z,12.20
2022-11-25T13:32:05.159Z,12.40
2022-11-25T13:34:35.529Z,11.80
2022-11-25T13:37:40.656Z,13.80
2022-11-25T13:40:41.121Z,15.00
2022-11-25T13:43:21.487Z,16.50
2022-11-25T13:45:49.851Z,13.80
2022-11-25T13:48:24.843Z,14.10
2022-11-25T13:51:22.338Z,12.40
2022-11-25T13:53:54.628Z,12.60
2022-11-25T13:56:30.755Z,13.40
2022-11-25T13:59:19.862Z,11.80
2022-11-25T14:01:47.686Z,9.80
2022-11-25T14:04:16.719Z,13.60
2022-11-25T14:06:52.599Z,18.80
2022-11-25T14:12:02.927Z,17.10
2022-11-25T14:14:46.578Z,15.50
2022-11-25T14:17:42.134Z,16.70
2022-11-25T14:20:39.096Z,15.40
2022-11-25T14:23:24.558Z,13.60
2022-11-25T14:25:57.758Z,13.10
2022-11-25T14:28:44.449Z,12.00
2022-11-25T14:31:17.763Z,13.40
2022-11-25T14:33:51.742Z,12.80
2022-11-25T14:36:24.806Z,15.70
2022-11-25T14:38:59.882Z,15.20
2022-11-25T14:41:44.190Z,16.60
2022-11-25T14:44:21.722Z,18.20
2022-11-25T14:46:54.644Z,20.80
2022-11-25T14:49:45.180Z,17.30
2022-11-25T14:52:15.683Z,19.10
2022-11-25T14:54:44.626Z,16.30
2022-11-25T14:57:12.780Z,17.00
2022-11-25T14:59:45.170Z,17.30
2022-11-25T15:02:31.468Z,17.10
2022-11-25T15:05:19.541Z,16.90
2022-11-25T15:08:13.258Z,18.30
2022-11-25T15:10:53.983Z,19.90
2022-11-25T15:13:37.711Z,19.60
2022-11-25T15:16:11.438Z,19.10
2022-11-25T15:19:04.001Z,19.70
2022-11-25T15:21:48.299Z,18.00
2022-11-25T15:27:55.761Z,16.60
2022-11-25T15:30:27.040Z,18.70
2022-11-25T15:32:55.886Z,18.90
2022-11-25T15:35:26.221Z,21.10
2022-11-25T15:37:56.611Z,21.10
2022-11-25T15:40:40.687Z,20.00
2022-11-25T15:43:23.491Z,19.70
2022-11-25T15:45:57.539Z,18.10
2022-11-25T15:48:31.146Z,19.60
2022-11-25T15:51:05.593Z,16.50
2022-11-25T15:53:37.047Z,19.50
2022-11-25T15:56:07.323Z,21.40
2022-11-25T15:58:35.314Z,13.30
2022-11-25T16:01:06.192Z,17.20
2022-11-25T16:03:35.531Z,15.90
2022-11-25T16:06:19.848Z,15.70
2022-11-25T16:08:58.719Z,18.40
2022-11-25T16:11:33.753Z,17.40
2022-11-25T16:14:34.651Z,15.20
2022-11-25T16:17:09.606Z,22.70
2022-11-25T16:19:44.403Z,20.80
2022-11-25T16:22:16.268Z,19.60
2022-11-25T16:24:57.312Z,19.60
2022-11-25T16:27:29.396Z,17.40
2022-11-25T16:30:06.450Z,17.90
2022-11-25T16:32:34.618Z,17.30
2022-11-25T16:35:18.251Z,17.20
2022-11-25T16:37:49.228Z,17.80
2022-11-25T16:40:18.707Z,18.50
2022-11-25T16:42:48.373Z,21.40
2022-11-25T16:45:26.396Z,21.90
2022-11-25T16:47:55.234Z,19.80
2022-11-25T16:50:23.820Z,20.20
2022-11-25T16:52:51.558Z,24.20
2022-11-25T16:55:19.279Z,27.70
2022-11-25T16:57:47.152Z,27.10
2022-11-25T17:00:17.149Z,21.20
2022-11-25T17:02:45.357Z,22.80
2022-11-25T17:05:19.271Z,23.00
2022-11-25T17:07:47.925Z,20.30
2022-11-25T17:10:16.458Z,19.90
2022-11-25T17:12:45.363Z,16.30
2022-11-25T17:15:19.955Z,15.90
2022-11-25T17:17:49.136Z,20.40
2022-11-25T17:20:21.697Z,21.40
2022-11-25T17:22:49.959Z,18.40
2022-11-25T17:25:18.142Z,21.50
2022-11-25T17:27:46.263Z,14.30
2022-11-25T17:30:27.346Z,17.70
2022-11-25T17:33:03.651Z,20.20
2022-11-25T17:35:31.664Z,18.50
2022-11-25T17:38:01.022Z,17.30
2022-11-25T17:40:28.884Z,24.80
2022-11-25T17:42:57.154Z,26.10
2022-11-25T17:45:25.004Z,25.20
2022-11-25T17:47:52.747Z,26.90
2022-11-25T17:50:23.068Z,24.00
2022-11-25T17:52:51.473Z,21.90
2022-11-25T17:55:21.968Z,22.00
2022-11-25T17:57:49.896Z,20.70
2022-11-25T18:00:21.415Z,18.50
2022-11-25T18:02:49.720Z,17.90
2022-11-25T18:05:20.346Z,25.30
2022-11-25T18:07:49.171Z,27.60
2022-11-25T18:10:19.872Z,26.20
2022-11-25T18:12:49.824Z,26.50
2022-11-25T18:15:22.467Z,25.30
2022-11-25T18:17:53.536Z,25.50
2022-11-25T18:20:26.228Z,25.10
2022-11-25T18:22:54.190Z,23.10
2022-11-25T18:25:29.293Z,22.80
2022-11-25T18:27:58.090Z,22.80
2022-11-25T18:30:31.085Z,21.50
2022-11-25T18:33:00.759Z,25.40
2022-11-25T18:38:05.188Z,24.10
2022-11-25T18:40:35.126Z,23.00
2022-11-25T18:43:04.670Z,26.50
2022-11-25T18:45:37.683Z,25.20
2022-11-25T18:48:16.158Z,27.10
2022-11-25T18:50:45.106Z,24.30
2022-11-25T18:53:13.477Z,22.60
2022-11-25T18:55:41.975Z,20.00
2022-11-25T18:58:17.207Z,20.70
2022-11-25T19:00:50.171Z,20.90
2022-11-25T19:03:23.473Z,23.60
2022-11-25T19:05:54.184Z,23.60
2022-11-25T19:08:21.929Z,31.60
2022-11-25T19:10:50.791Z,25.10
2022-11-25T19:13:31.768Z,23.10
2022-11-25T19:16:06.397Z,22.50
2022-11-25T19:18:35.201Z,23.00
2022-11-25T19:21:03.294Z,22.10
2022-11-25T19:27:01.974Z,26.80
2022-11-25T19:29:29.624Z,28.00
2022-11-25T19:31:58.431Z,27.60
2022-11-25T19:34:38.533Z,22.60
2022-11-25T19:37:06.443Z,21.00
2022-11-25T19:39:36.390Z,20.30
2022-11-25T19:42:04.154Z,20.20
2022-11-25T19:44:31.919Z,21.00
2022-11-25T19:47:14.720Z,19.20
2022-11-25T19:49:44.103Z,22.30
2022-11-25T19:52:18.024Z,23.50
2022-11-25T19:54:48.373Z,23.20
2022-11-25T19:57:22.132Z,25.00
2022-11-25T19:59:50.150Z,24.80
2022-11-25T20:02:22.837Z,21.10
2022-11-25T20:04:54.333Z,20.50
2022-11-25T20:07:22.301Z,15.90
2022-11-25T20:09:51.566Z,17.50
2022-11-25T20:12:20.158Z,20.90
2022-11-25T20:14:48.835Z,22.90
2022-11-25T20:17:32.790Z,22.80
2022-11-25T20:20:11.642Z,26.10
2022-11-25T20:22:44.265Z,23.80
2022-11-25T20:25:14.797Z,24.00
2022-11-25T20:27:42.617Z,24.60
2022-11-25T20:30:17.171Z,24.40
2022-11-25T20:32:44.964Z,24.50
2022-11-25T20:35:13.382Z,25.00
2022-11-25T20:37:53.832Z,23.10
2022-11-25T20:40:42.124Z,20.80
2022-11-25T20:43:47.422Z,20.10
2022-11-25T20:46:23.914Z,19.90
2022-11-25T20:48:54.509Z,20.90
2022-11-25T20:51:23.817Z,20.90
2022-11-25T20:54:03.329Z,20.90
2022-11-25T20:56:31.038Z,21.70
2022-11-25T20:58:58.728Z,23.80
2022-11-25T21:01:26.704Z,25.20
2022-11-25T21:03:54.580Z,22.90
2022-11-25T21:06:25.675Z,23.50
2022-11-25T21:08:55.648Z,20.00
2022-11-25T21:11:23.434Z,20.40
2022-11-25T21:13:52.172Z,20.80
2022-11-25T21:16:20.212Z,15.00
2022-11-25T21:18:48.017Z,19.30
2022-11-25T21:21:28.716Z,20.40
2022-11-25T21:23:56.853Z,24.60
2022-11-25T21:26:26.581Z,23.30
2022-11-25T21:31:24.789Z,26.30
2022-11-25T21:33:57.610Z,26.40
2022-11-25T21:36:31.224Z,23.50
2022-11-25T21:39:09.089Z,24.30
2022-11-25T21:41:36.931Z,21.20
2022-11-25T21:44:06.261Z,21.00
2022-11-25T21:46:34.186Z,19.60
2022-11-25T21:49:02.124Z,19.50
2022-11-25T21:51:29.849Z,20.80
2022-11-25T21:53:57.502Z,22.00
2022-11-25T21:56:32.082Z,22.00
2022-11-25T21:59:01.578Z,23.40
2022-11-25T22:01:29.859Z,26.90
2022-11-25T22:03:58.122Z,24.40
2022-11-25T22:06:29.138Z,23.00
2022-11-25T22:08:57.442Z,23.70
2022-11-25T22:11:33.715Z,25.30
2022-11-25T22:14:06.614Z,23.50
2022-11-25T22:16:36.663Z,22.90
2022-11-25T22:19:04.541Z,26.40
2022-11-25T22:21:32.408Z,24.50
2022-11-25T22:24:00.162Z,24.50
2022-11-25T22:26:32.763Z,22.30
2022-11-25T22:29:01.917Z,25.40
2022-11-25T22:31:29.712Z,33.50
2022-11-25T22:33:57.736Z,25.20
2022-11-25T22:36:28.300Z,26.80
2022-11-25T22:38:58.987Z,31.70
2022-11-25T22:41:27.114Z,25.60
2022-11-25T22:43:54.941Z,32.40
2022-11-25T22:46:22.791Z,24.30
2022-11-25T22:48:50.603Z,23.30
2022-11-25T22:51:24.801Z,23.30
2022-11-25T22:53:52.640Z,27.50
2022-11-25T22:56:20.478Z,30.60
2022-11-25T22:58:48.677Z,33.20
2022-11-25T23:01:17.202Z,28.30
2022-11-25T23:03:45.187Z,27.60
2022-11-25T23:06:13.911Z,27.30
2022-11-25T23:08:41.778Z,26.20
2022-11-25T23:11:17.378Z,25.80
2022-11-25T23:13:45.138Z,23.70
2022-11-25T23:16:12.867Z,24.00
2022-11-25T23:18:44.784Z,22.00
2022-11-25T23:21:21.394Z,25.20
2022-11-25T23:23:50.260Z,25.50
2022-11-25T23:26:18.153Z,28.50
2022-11-25T23:28:45.877Z,23.80
2022-11-25T23:31:15.371Z,28.10
2022-11-25T23:33:48.506Z,26.60
2022-11-25T23:36:47.364Z,22.60
2022-11-25T23:39:20.095Z,22.90
2022-11-25T23:41:48.856Z,22.80
2022-11-25T23:44:28.627Z,23.70
2022-11-25T23:47:04.271Z,24.20
2022-11-25T23:49:44.102Z,26.50
2022-11-25T23:52:23.097Z,24.80
2022-11-25T23:54:52.401Z,23.80
2022-11-25T23:57:26.827Z,19.40
2022-11-25T23:59:54.732Z,22.80
